sensor_id;sensor_type;location;lat;lon;timestamp;P1;durP1;ratioP1;P2;durP2;ratioP2
38240;SDS011;24037;49.536;8.500;2023-07-22T00:01:11;3.03;;;2.20;;
38240;SDS011;24037;49.536;8.500;2023-07-22T00:03:38;3.80;;;2.30;;
38240;SDS011;24037;49.536;8.500;2023-07-22T00:06:07;3.92;;;2.03;;
38240;SDS011;24037;49.536;8.500;2023-07-22T00:08:35;5.82;;;2.20;;
38240;SDS011;24037;49.536;8.500;2023-07-22T00:11:03;3.17;;;2.55;;
38240;SDS011;24037;49.536;8.500;2023-07-22T00:13:32;2.72;;;2.00;;
38240;SDS011;24037;49.536;8.500;2023-07-22T00:15:58;3.92;;;1.90;;
38240;SDS011;24037;49.536;8.500;2023-07-22T00:18:26;4.30;;;2.90;;
38240;SDS011;24037;49.536;8.500;2023-07-22T00:20:54;3.33;;;2.35;;
38240;SDS011;24037;49.536;8.500;2023-07-22T00:23:20;3.10;;;2.33;;
38240;SDS011;24037;49.536;8.500;2023-07-22T00:25:47;2.92;;;2.08;;
38240;SDS011;24037;49.536;8.500;2023-07-22T00:28:13;4.90;;;2.60;;
38240;SDS011;24037;49.536;8.500;2023-07-22T00:30:39;3.03;;;2.20;;
38240;SDS011;24037;49.536;8.500;2023-07-22T00:33:05;4.88;;;1.92;;
38240;SDS011;24037;49.536;8.500;2023-07-22T00:35:32;3.85;;;2.25;;
38240;SDS011;24037;49.536;8.500;2023-07-22T00:37:58;3.05;;;2.05;;
38240;SDS011;24037;49.536;8.500;2023-07-22T00:40:25;3.20;;;2.13;;
38240;SDS011;24037;49.536;8.500;2023-07-22T00:42:52;3.78;;;2.22;;
38240;SDS011;24037;49.536;8.500;2023-07-22T00:45:18;4.25;;;2.45;;
38240;SDS011;24037;49.536;8.500;2023-07-22T00:47:44;3.75;;;2.47;;
38240;SDS011;24037;49.536;8.500;2023-07-22T00:50:11;1.90;;;1.70;;
38240;SDS011;24037;49.536;8.500;2023-07-22T00:52:38;3.55;;;2.10;;
38240;SDS011;24037;49.536;8.500;2023-07-22T00:55:04;4.90;;;2.03;;
38240;SDS011;24037;49.536;8.500;2023-07-22T00:57:31;3.53;;;1.83;;
38240;SDS011;24037;49.536;8.500;2023-07-22T00:59:57;2.72;;;1.92;;
38240;SDS011;24037;49.536;8.500;2023-07-22T01:02:23;4.57;;;2.20;;
38240;SDS011;24037;49.536;8.500;2023-07-22T01:04:50;3.55;;;2.05;;
38240;SDS011;24037;49.536;8.500;2023-07-22T01:07:17;4.05;;;2.40;;
38240;SDS011;24037;49.536;8.500;2023-07-22T01:09:44;4.03;;;2.40;;
38240;SDS011;24037;49.536;8.500;2023-07-22T01:12:11;2.58;;;2.13;;
38240;SDS011;24037;49.536;8.500;2023-07-22T01:14:38;3.28;;;2.65;;
38240;SDS011;24037;49.536;8.500;2023-07-22T01:17:06;5.15;;;2.55;;
38240;SDS011;24037;49.536;8.500;2023-07-22T01:19:34;3.72;;;2.78;;
38240;SDS011;24037;49.536;8.500;2023-07-22T01:22:02;3.58;;;2.72;;
38240;SDS011;24037;49.536;8.500;2023-07-22T01:24:30;3.90;;;2.63;;
38240;SDS011;24037;49.536;8.500;2023-07-22T01:26:56;4.43;;;2.40;;
38240;SDS011;24037;49.536;8.500;2023-07-22T01:29:23;4.05;;;3.00;;
38240;SDS011;24037;49.536;8.500;2023-07-22T01:31:50;4.00;;;2.85;;
38240;SDS011;24037;49.536;8.500;2023-07-22T01:34:18;3.22;;;2.38;;
38240;SDS011;24037;49.536;8.500;2023-07-22T01:36:45;3.03;;;2.72;;
38240;SDS011;24037;49.536;8.500;2023-07-22T01:41:42;5.45;;;2.55;;
38240;SDS011;24037;49.536;8.500;2023-07-22T01:44:09;4.18;;;3.05;;
38240;SDS011;24037;49.536;8.500;2023-07-22T01:46:36;3.40;;;2.80;;
38240;SDS011;24037;49.536;8.500;2023-07-22T01:49:07;3.00;;;2.70;;
38240;SDS011;24037;49.536;8.500;2023-07-22T01:51:36;3.38;;;2.80;;
38240;SDS011;24037;49.536;8.500;2023-07-22T01:54:03;3.53;;;3.05;;
38240;SDS011;24037;49.536;8.500;2023-07-22T01:56:30;4.63;;;2.97;;
38240;SDS011;24037;49.536;8.500;2023-07-22T01:58:57;5.10;;;2.75;;
38240;SDS011;24037;49.536;8.500;2023-07-22T02:01:23;3.15;;;2.70;;
38240;SDS011;24037;49.536;8.500;2023-07-22T02:03:49;4.18;;;2.55;;
38240;SDS011;24037;49.536;8.500;2023-07-22T02:06:15;4.63;;;3.05;;
38240;SDS011;24037;49.536;8.500;2023-07-22T02:08:42;2.50;;;2.30;;
38240;SDS011;24037;49.536;8.500;2023-07-22T02:11:08;4.50;;;2.92;;
38240;SDS011;24037;49.536;8.500;2023-07-22T02:13:34;4.47;;;2.95;;
38240;SDS011;24037;49.536;8.500;2023-07-22T02:16:01;4.03;;;2.92;;
38240;SDS011;24037;49.536;8.500;2023-07-22T02:18:27;4.07;;;2.42;;
38240;SDS011;24037;49.536;8.500;2023-07-22T02:20:54;4.22;;;2.65;;
38240;SDS011;24037;49.536;8.500;2023-07-22T02:23:21;3.92;;;2.70;;
38240;SDS011;24037;49.536;8.500;2023-07-22T02:25:49;4.40;;;3.35;;
38240;SDS011;24037;49.536;8.500;2023-07-22T02:28:19;3.80;;;3.05;;
38240;SDS011;24037;49.536;8.500;2023-07-22T02:30:52;7.03;;;3.35;;
38240;SDS011;24037;49.536;8.500;2023-07-22T02:33:20;5.05;;;3.20;;
38240;SDS011;24037;49.536;8.500;2023-07-22T02:35:47;4.45;;;3.58;;
38240;SDS011;24037;49.536;8.500;2023-07-22T02:38:14;4.90;;;3.80;;
38240;SDS011;24037;49.536;8.500;2023-07-22T02:40:40;4.72;;;3.65;;
38240;SDS011;24037;49.536;8.500;2023-07-22T02:43:06;4.50;;;3.95;;
38240;SDS011;24037;49.536;8.500;2023-07-22T02:45:33;7.55;;;4.35;;
38240;SDS011;24037;49.536;8.500;2023-07-22T02:47:59;5.32;;;4.50;;
38240;SDS011;24037;49.536;8.500;2023-07-22T02:50:26;6.03;;;5.25;;
38240;SDS011;24037;49.536;8.500;2023-07-22T02:52:52;7.95;;;6.05;;
38240;SDS011;24037;49.536;8.500;2023-07-22T02:55:18;7.10;;;5.50;;
38240;SDS011;24037;49.536;8.500;2023-07-22T02:57:45;5.30;;;4.47;;
38240;SDS011;24037;49.536;8.500;2023-07-22T03:00:12;7.45;;;5.65;;
38240;SDS011;24037;49.536;8.500;2023-07-22T03:02:43;6.78;;;6.05;;
38240;SDS011;24037;49.536;8.500;2023-07-22T03:05:09;6.10;;;5.38;;
38240;SDS011;24037;49.536;8.500;2023-07-22T03:07:36;7.07;;;6.00;;
38240;SDS011;24037;49.536;8.500;2023-07-22T03:10:03;8.13;;;6.95;;
38240;SDS011;24037;49.536;8.500;2023-07-22T03:12:31;8.93;;;7.28;;
38240;SDS011;24037;49.536;8.500;2023-07-22T03:14:57;8.95;;;6.80;;
38240;SDS011;24037;49.536;8.500;2023-07-22T03:17:24;8.95;;;7.03;;
38240;SDS011;24037;49.536;8.500;2023-07-22T03:19:50;10.38;;;7.60;;
38240;SDS011;24037;49.536;8.500;2023-07-22T03:22:16;8.27;;;7.07;;
38240;SDS011;24037;49.536;8.500;2023-07-22T03:24:44;9.15;;;7.60;;
38240;SDS011;24037;49.536;8.500;2023-07-22T03:27:11;8.10;;;7.30;;
38240;SDS011;24037;49.536;8.500;2023-07-22T03:29:38;8.05;;;6.95;;
38240;SDS011;24037;49.536;8.500;2023-07-22T03:32:04;9.05;;;6.68;;
38240;SDS011;24037;49.536;8.500;2023-07-22T03:34:31;9.27;;;7.20;;
38240;SDS011;24037;49.536;8.500;2023-07-22T03:36:57;8.30;;;7.03;;
38240;SDS011;24037;49.536;8.500;2023-07-22T03:39:24;7.20;;;6.40;;
38240;SDS011;24037;49.536;8.500;2023-07-22T03:41:50;7.95;;;6.60;;
38240;SDS011;24037;49.536;8.500;2023-07-22T03:44:16;7.25;;;6.55;;
38240;SDS011;24037;49.536;8.500;2023-07-22T03:46:42;8.27;;;6.30;;
38240;SDS011;24037;49.536;8.500;2023-07-22T03:49:09;7.32;;;6.20;;
38240;SDS011;24037;49.536;8.500;2023-07-22T03:51:35;7.57;;;6.68;;
38240;SDS011;24037;49.536;8.500;2023-07-22T03:54:01;10.45;;;6.80;;
38240;SDS011;24037;49.536;8.500;2023-07-22T03:56:27;9.27;;;6.97;;
38240;SDS011;24037;49.536;8.500;2023-07-22T03:58:53;10.90;;;7.03;;
38240;SDS011;24037;49.536;8.500;2023-07-22T04:01:19;10.88;;;8.57;;
38240;SDS011;24037;49.536;8.500;2023-07-22T04:03:46;20.17;;;9.70;;
38240;SDS011;24037;49.536;8.500;2023-07-22T04:06:12;11.40;;;8.55;;
38240;SDS011;24037;49.536;8.500;2023-07-22T04:08:38;11.20;;;9.65;;
38240;SDS011;24037;49.536;8.500;2023-07-22T04:11:04;9.60;;;8.35;;
38240;SDS011;24037;49.536;8.500;2023-07-22T04:13:30;9.00;;;8.07;;
38240;SDS011;24037;49.536;8.500;2023-07-22T04:15:56;11.02;;;9.27;;
38240;SDS011;24037;49.536;8.500;2023-07-22T04:18:23;11.00;;;8.77;;
38240;SDS011;24037;49.536;8.500;2023-07-22T04:20:54;11.73;;;8.43;;
38240;SDS011;24037;49.536;8.500;2023-07-22T04:23:21;11.90;;;9.32;;
38240;SDS011;24037;49.536;8.500;2023-07-22T04:25:48;13.35;;;10.80;;
38240;SDS011;24037;49.536;8.500;2023-07-22T04:28:14;12.38;;;9.38;;
38240;SDS011;24037;49.536;8.500;2023-07-22T04:30:41;10.10;;;9.10;;
38240;SDS011;24037;49.536;8.500;2023-07-22T04:33:07;11.95;;;9.05;;
38240;SDS011;24037;49.536;8.500;2023-07-22T04:35:40;10.75;;;8.23;;
38240;SDS011;24037;49.536;8.500;2023-07-22T04:40:32;10.88;;;7.32;;
38240;SDS011;24037;49.536;8.500;2023-07-22T04:42:58;8.25;;;7.22;;
38240;SDS011;24037;49.536;8.500;2023-07-22T04:45:24;10.70;;;8.48;;
38240;SDS011;24037;49.536;8.500;2023-07-22T04:47:51;9.20;;;7.47;;
38240;SDS011;24037;49.536;8.500;2023-07-22T04:50:17;8.68;;;6.85;;
38240;SDS011;24037;49.536;8.500;2023-07-22T04:52:47;8.40;;;7.60;;
38240;SDS011;24037;49.536;8.500;2023-07-22T04:55:14;8.48;;;6.72;;
38240;SDS011;24037;49.536;8.500;2023-07-22T04:57:41;8.10;;;7.30;;
38240;SDS011;24037;49.536;8.500;2023-07-22T05:00:08;8.43;;;6.85;;
38240;SDS011;24037;49.536;8.500;2023-07-22T05:02:40;7.93;;;7.13;;
38240;SDS011;24037;49.536;8.500;2023-07-22T05:05:06;9.45;;;6.40;;
38240;SDS011;24037;49.536;8.500;2023-07-22T05:07:33;9.30;;;6.30;;
38240;SDS011;24037;49.536;8.500;2023-07-22T05:09:59;7.50;;;5.20;;
38240;SDS011;24037;49.536;8.500;2023-07-22T05:12:25;7.68;;;5.78;;
38240;SDS011;24037;49.536;8.500;2023-07-22T05:14:54;5.97;;;4.68;;
38240;SDS011;24037;49.536;8.500;2023-07-22T05:17:20;7.55;;;5.40;;
38240;SDS011;24037;49.536;8.500;2023-07-22T05:19:46;6.65;;;4.85;;
38240;SDS011;24037;49.536;8.500;2023-07-22T05:22:14;4.53;;;3.97;;
38240;SDS011;24037;49.536;8.500;2023-07-22T05:24:40;6.63;;;4.28;;
38240;SDS011;24037;49.536;8.500;2023-07-22T05:27:06;7.22;;;4.45;;
38240;SDS011;24037;49.536;8.500;2023-07-22T05:29:33;7.75;;;4.30;;
38240;SDS011;24037;49.536;8.500;2023-07-22T05:31:59;9.52;;;4.47;;
38240;SDS011;24037;49.536;8.500;2023-07-22T05:34:25;4.15;;;3.60;;
38240;SDS011;24037;49.536;8.500;2023-07-22T05:36:51;6.57;;;4.00;;
38240;SDS011;24037;49.536;8.500;2023-07-22T05:39:17;5.95;;;4.43;;
38240;SDS011;24037;49.536;8.500;2023-07-22T05:41:44;6.90;;;4.10;;
38240;SDS011;24037;49.536;8.500;2023-07-22T05:44:10;6.57;;;4.20;;
38240;SDS011;24037;49.536;8.500;2023-07-22T05:46:36;6.15;;;3.65;;
38240;SDS011;24037;49.536;8.500;2023-07-22T05:49:04;5.40;;;3.78;;
38240;SDS011;24037;49.536;8.500;2023-07-22T05:51:30;5.65;;;3.58;;
38240;SDS011;24037;49.536;8.500;2023-07-22T05:53:57;6.78;;;4.13;;
38240;SDS011;24037;49.536;8.500;2023-07-22T05:56:23;5.30;;;3.55;;
38240;SDS011;24037;49.536;8.500;2023-07-22T05:58:49;5.93;;;4.07;;
38240;SDS011;24037;49.536;8.500;2023-07-22T06:01:15;4.85;;;3.38;;
38240;SDS011;24037;49.536;8.500;2023-07-22T06:03:41;5.68;;;3.38;;
38240;SDS011;24037;49.536;8.500;2023-07-22T06:06:10;6.25;;;4.15;;
38240;SDS011;24037;49.536;8.500;2023-07-22T06:08:36;6.63;;;3.33;;
38240;SDS011;24037;49.536;8.500;2023-07-22T06:11:02;4.75;;;3.65;;
38240;SDS011;24037;49.536;8.500;2023-07-22T06:13:28;4.97;;;3.35;;
38240;SDS011;24037;49.536;8.500;2023-07-22T06:15:55;3.92;;;3.10;;
38240;SDS011;24037;49.536;8.500;2023-07-22T06:18:21;6.35;;;3.95;;
38240;SDS011;24037;49.536;8.500;2023-07-22T06:20:47;4.80;;;3.05;;
38240;SDS011;24037;49.536;8.500;2023-07-22T06:23:13;4.45;;;3.05;;
38240;SDS011;24037;49.536;8.500;2023-07-22T06:25:39;6.88;;;3.45;;
38240;SDS011;24037;49.536;8.500;2023-07-22T06:28:06;5.60;;;3.20;;
38240;SDS011;24037;49.536;8.500;2023-07-22T06:30:32;4.65;;;3.30;;
38240;SDS011;24037;49.536;8.500;2023-07-22T06:32:58;5.25;;;3.03;;
38240;SDS011;24037;49.536;8.500;2023-07-22T06:35:24;4.43;;;3.60;;
38240;SDS011;24037;49.536;8.500;2023-07-22T06:37:50;6.10;;;3.80;;
38240;SDS011;24037;49.536;8.500;2023-07-22T06:40:17;6.65;;;3.22;;
38240;SDS011;24037;49.536;8.500;2023-07-22T06:42:43;5.80;;;3.30;;
38240;SDS011;24037;49.536;8.500;2023-07-22T06:45:09;5.28;;;3.85;;
38240;SDS011;24037;49.536;8.500;2023-07-22T06:47:35;7.03;;;3.65;;
38240;SDS011;24037;49.536;8.500;2023-07-22T06:50:02;5.10;;;4.32;;
38240;SDS011;24037;49.536;8.500;2023-07-22T06:52:30;4.63;;;3.63;;
38240;SDS011;24037;49.536;8.500;2023-07-22T06:54:56;5.93;;;3.70;;
38240;SDS011;24037;49.536;8.500;2023-07-22T06:57:23;6.63;;;3.30;;
38240;SDS011;24037;49.536;8.500;2023-07-22T06:59:53;4.90;;;3.53;;
38240;SDS011;24037;49.536;8.500;2023-07-22T07:02:19;6.93;;;3.92;;
38240;SDS011;24037;49.536;8.500;2023-07-22T07:04:46;5.68;;;3.55;;
38240;SDS011;24037;49.536;8.500;2023-07-22T07:07:13;4.28;;;3.17;;
38240;SDS011;24037;49.536;8.500;2023-07-22T07:09:40;5.45;;;3.58;;
38240;SDS011;24037;49.536;8.500;2023-07-22T07:12:06;6.47;;;3.70;;
38240;SDS011;24037;49.536;8.500;2023-07-22T07:14:33;6.25;;;3.42;;
38240;SDS011;24037;49.536;8.500;2023-07-22T07:17:00;4.70;;;3.13;;
38240;SDS011;24037;49.536;8.500;2023-07-22T07:19:27;8.05;;;3.35;;
38240;SDS011;24037;49.536;8.500;2023-07-22T07:21:53;5.93;;;3.22;;
38240;SDS011;24037;49.536;8.500;2023-07-22T07:24:20;4.53;;;2.95;;
38240;SDS011;24037;49.536;8.500;2023-07-22T07:26:46;5.25;;;3.13;;
38240;SDS011;24037;49.536;8.500;2023-07-22T07:29:12;6.95;;;3.65;;
38240;SDS011;24037;49.536;8.500;2023-07-22T07:31:38;6.32;;;3.35;;
38240;SDS011;24037;49.536;8.500;2023-07-22T07:34:05;6.85;;;2.95;;
38240;SDS011;24037;49.536;8.500;2023-07-22T07:36:32;4.88;;;3.05;;
38240;SDS011;24037;49.536;8.500;2023-07-22T07:38:59;5.63;;;3.30;;
38240;SDS011;24037;49.536;8.500;2023-07-22T07:41:25;5.75;;;3.65;;
38240;SDS011;24037;49.536;8.500;2023-07-22T07:43:51;6.25;;;3.70;;
38240;SDS011;24037;49.536;8.500;2023-07-22T07:48:49;5.15;;;3.58;;
38240;SDS011;24037;49.536;8.500;2023-07-22T07:51:17;7.18;;;3.25;;
38240;SDS011;24037;49.536;8.500;2023-07-22T07:53:44;6.72;;;3.83;;
38240;SDS011;24037;49.536;8.500;2023-07-22T07:56:15;6.22;;;3.50;;
38240;SDS011;24037;49.536;8.500;2023-07-22T07:58:42;4.15;;;3.30;;
38240;SDS011;24037;49.536;8.500;2023-07-22T08:01:09;3.95;;;3.00;;
38240;SDS011;24037;49.536;8.500;2023-07-22T08:03:36;3.97;;;2.70;;
38240;SDS011;24037;49.536;8.500;2023-07-22T08:06:03;5.72;;;3.80;;
38240;SDS011;24037;49.536;8.500;2023-07-22T08:08:30;4.13;;;3.25;;
38240;SDS011;24037;49.536;8.500;2023-07-22T08:13:29;4.68;;;3.10;;
38240;SDS011;24037;49.536;8.500;2023-07-22T08:15:57;8.00;;;3.67;;
38240;SDS011;24037;49.536;8.500;2023-07-22T08:18:24;4.25;;;3.00;;
38240;SDS011;24037;49.536;8.500;2023-07-22T08:20:51;4.50;;;3.20;;
38240;SDS011;24037;49.536;8.500;2023-07-22T08:23:18;6.07;;;3.40;;
38240;SDS011;24037;49.536;8.500;2023-07-22T08:25:45;3.58;;;2.72;;
38240;SDS011;24037;49.536;8.500;2023-07-22T08:28:11;4.03;;;3.00;;
38240;SDS011;24037;49.536;8.500;2023-07-22T08:30:37;4.47;;;2.78;;
38240;SDS011;24037;49.536;8.500;2023-07-22T08:33:06;3.80;;;2.75;;
38240;SDS011;24037;49.536;8.500;2023-07-22T08:35:37;4.60;;;3.00;;
38240;SDS011;24037;49.536;8.500;2023-07-22T08:38:04;5.45;;;3.00;;
38240;SDS011;24037;49.536;8.500;2023-07-22T08:40:37;4.50;;;2.65;;
38240;SDS011;24037;49.536;8.500;2023-07-22T08:43:09;7.43;;;3.08;;
38240;SDS011;24037;49.536;8.500;2023-07-22T08:45:37;5.28;;;2.97;;
38240;SDS011;24037;49.536;8.500;2023-07-22T08:48:05;5.70;;;3.03;;
38240;SDS011;24037;49.536;8.500;2023-07-22T08:50:45;5.07;;;2.42;;
38240;SDS011;24037;49.536;8.500;2023-07-22T08:53:15;4.05;;;2.58;;
38240;SDS011;24037;49.536;8.500;2023-07-22T08:55:41;3.47;;;2.72;;
38240;SDS011;24037;49.536;8.500;2023-07-22T08:58:08;4.43;;;2.42;;
38240;SDS011;24037;49.536;8.500;2023-07-22T09:00:35;4.53;;;2.92;;
38240;SDS011;24037;49.536;8.500;2023-07-22T09:03:02;4.63;;;2.92;;
38240;SDS011;24037;49.536;8.500;2023-07-22T09:05:31;4.00;;;2.50;;
38240;SDS011;24037;49.536;8.500;2023-07-22T09:07:59;4.65;;;2.47;;
38240;SDS011;24037;49.536;8.500;2023-07-22T09:10:28;3.80;;;2.47;;
38240;SDS011;24037;49.536;8.500;2023-07-22T09:12:54;3.05;;;2.00;;
38240;SDS011;24037;49.536;8.500;2023-07-22T09:15:20;4.28;;;2.45;;
38240;SDS011;24037;49.536;8.500;2023-07-22T09:17:48;3.97;;;2.28;;
38240;SDS011;24037;49.536;8.500;2023-07-22T09:20:15;3.35;;;2.35;;
38240;SDS011;24037;49.536;8.500;2023-07-22T09:22:44;4.45;;;2.15;;
38240;SDS011;24037;49.536;8.500;2023-07-22T09:25:13;3.25;;;2.25;;
38240;SDS011;24037;49.536;8.500;2023-07-22T09:32:48;4.30;;;2.00;;
38240;SDS011;24037;49.536;8.500;2023-07-22T09:35:15;3.70;;;1.80;;
38240;SDS011;24037;49.536;8.500;2023-07-22T09:37:42;2.92;;;1.60;;
38240;SDS011;24037;49.536;8.500;2023-07-22T09:40:18;3.00;;;1.63;;
38240;SDS011;24037;49.536;8.500;2023-07-22T09:42:49;4.28;;;2.00;;
38240;SDS011;24037;49.536;8.500;2023-07-22T09:45:18;3.08;;;1.70;;
38240;SDS011;24037;49.536;8.500;2023-07-22T09:47:45;2.67;;;1.60;;
38240;SDS011;24037;49.536;8.500;2023-07-22T09:50:19;4.53;;;1.80;;
38240;SDS011;24037;49.536;8.500;2023-07-22T09:52:50;3.45;;;1.83;;
38240;SDS011;24037;49.536;8.500;2023-07-22T09:55:19;8.15;;;1.95;;
38240;SDS011;24037;49.536;8.500;2023-07-22T09:57:57;3.90;;;1.80;;
38240;SDS011;24037;49.536;8.500;2023-07-22T10:00:28;4.57;;;2.17;;
38240;SDS011;24037;49.536;8.500;2023-07-22T10:03:02;3.40;;;1.98;;
38240;SDS011;24037;49.536;8.500;2023-07-22T10:05:35;4.35;;;1.80;;
38240;SDS011;24037;49.536;8.500;2023-07-22T10:08:05;3.08;;;1.92;;
38240;SDS011;24037;49.536;8.500;2023-07-22T10:10:33;4.30;;;1.88;;
38240;SDS011;24037;49.536;8.500;2023-07-22T10:13:01;3.47;;;2.22;;
38240;SDS011;24037;49.536;8.500;2023-07-22T10:15:28;5.05;;;2.25;;
38240;SDS011;24037;49.536;8.500;2023-07-22T10:17:56;3.55;;;1.80;;
38240;SDS011;24037;49.536;8.500;2023-07-22T10:20:23;3.10;;;1.83;;
38240;SDS011;24037;49.536;8.500;2023-07-22T10:22:50;2.35;;;1.55;;
38240;SDS011;24037;49.536;8.500;2023-07-22T10:25:17;4.22;;;2.00;;
38240;SDS011;24037;49.536;8.500;2023-07-22T10:27:45;7.00;;;2.25;;
38240;SDS011;24037;49.536;8.500;2023-07-22T10:30:13;4.18;;;2.28;;
38240;SDS011;24037;49.536;8.500;2023-07-22T10:32:41;3.15;;;2.17;;
38240;SDS011;24037;49.536;8.500;2023-07-22T10:35:09;4.53;;;1.73;;
38240;SDS011;24037;49.536;8.500;2023-07-22T10:37:38;3.97;;;1.88;;
38240;SDS011;24037;49.536;8.500;2023-07-22T10:43:23;3.47;;;1.98;;
38240;SDS011;24037;49.536;8.500;2023-07-22T10:45:41;7.55;;;2.00;;
38240;SDS011;24037;49.536;8.500;2023-07-22T10:50:45;4.10;;;2.90;;
38240;SDS011;24037;49.536;8.500;2023-07-22T10:56:02;3.55;;;1.95;;
38240;SDS011;24037;49.536;8.500;2023-07-22T11:06:31;8.73;;;2.47;;
38240;SDS011;24037;49.536;8.500;2023-07-22T11:08:57;4.72;;;2.45;;
38240;SDS011;24037;49.536;8.500;2023-07-22T11:11:37;3.55;;;2.05;;
38240;SDS011;24037;49.536;8.500;2023-07-22T11:16:47;4.90;;;2.10;;
38240;SDS011;24037;49.536;8.500;2023-07-22T11:19:15;4.68;;;1.95;;
38240;SDS011;24037;49.536;8.500;2023-07-22T11:21:43;4.00;;;2.00;;
38240;SDS011;24037;49.536;8.500;2023-07-22T11:24:10;5.32;;;2.15;;
38240;SDS011;24037;49.536;8.500;2023-07-22T11:26:36;3.22;;;1.90;;
38240;SDS011;24037;49.536;8.500;2023-07-22T11:29:03;2.72;;;2.03;;
38240;SDS011;24037;49.536;8.500;2023-07-22T11:31:31;3.42;;;1.85;;
38240;SDS011;24037;49.536;8.500;2023-07-22T11:33:58;3.75;;;1.80;;
38240;SDS011;24037;49.536;8.500;2023-07-22T11:36:25;5.78;;;1.70;;
38240;SDS011;24037;49.536;8.500;2023-07-22T11:38:52;3.83;;;1.88;;
38240;SDS011;24037;49.536;8.500;2023-07-22T11:41:20;5.93;;;2.30;;
38240;SDS011;24037;49.536;8.500;2023-07-22T11:43:48;2.55;;;2.30;;
38240;SDS011;24037;49.536;8.500;2023-07-22T11:46:14;4.18;;;2.22;;
38240;SDS011;24037;49.536;8.500;2023-07-22T11:48:48;3.53;;;2.15;;
38240;SDS011;24037;49.536;8.500;2023-07-22T11:51:16;5.60;;;2.13;;
38240;SDS011;24037;49.536;8.500;2023-07-22T11:53:46;3.63;;;1.38;;
38240;SDS011;24037;49.536;8.500;2023-07-22T11:56:23;5.00;;;2.17;;
38240;SDS011;24037;49.536;8.500;2023-07-22T11:58:52;4.57;;;1.80;;
38240;SDS011;24037;49.536;8.500;2023-07-22T12:01:19;3.80;;;2.00;;
38240;SDS011;24037;49.536;8.500;2023-07-22T12:03:47;4.90;;;2.20;;
38240;SDS011;24037;49.536;8.500;2023-07-22T12:06:13;4.20;;;1.95;;
38240;SDS011;24037;49.536;8.500;2023-07-22T12:08:48;4.18;;;1.70;;
38240;SDS011;24037;49.536;8.500;2023-07-22T12:11:18;3.63;;;1.75;;
38240;SDS011;24037;49.536;8.500;2023-07-22T12:16:34;3.03;;;1.95;;
38240;SDS011;24037;49.536;8.500;2023-07-22T12:19:02;4.23;;;2.10;;
38240;SDS011;24037;49.536;8.500;2023-07-22T12:21:28;3.30;;;1.50;;
38240;SDS011;24037;49.536;8.500;2023-07-22T12:23:55;2.78;;;2.00;;
38240;SDS011;24037;49.536;8.500;2023-07-22T12:26:21;3.58;;;1.70;;
38240;SDS011;24037;49.536;8.500;2023-07-22T12:28:47;6.55;;;1.88;;
38240;SDS011;24037;49.536;8.500;2023-07-22T12:31:13;2.63;;;1.75;;
38240;SDS011;24037;49.536;8.500;2023-07-22T12:33:39;2.95;;;1.98;;
38240;SDS011;24037;49.536;8.500;2023-07-22T12:36:05;4.53;;;1.75;;
38240;SDS011;24037;49.536;8.500;2023-07-22T12:38:32;4.95;;;2.53;;
38240;SDS011;24037;49.536;8.500;2023-07-22T12:40:58;5.32;;;2.63;;
38240;SDS011;24037;49.536;8.500;2023-07-22T12:43:24;3.03;;;1.95;;
38240;SDS011;24037;49.536;8.500;2023-07-22T12:45:50;4.00;;;2.05;;
38240;SDS011;24037;49.536;8.500;2023-07-22T12:48:16;5.25;;;3.53;;
38240;SDS011;24037;49.536;8.500;2023-07-22T12:50:45;2.35;;;1.77;;
38240;SDS011;24037;49.536;8.500;2023-07-22T12:53:14;9.63;;;4.55;;
38240;SDS011;24037;49.536;8.500;2023-07-22T12:55:40;4.00;;;2.40;;
38240;SDS011;24037;49.536;8.500;2023-07-22T12:58:06;4.57;;;2.25;;
38240;SDS011;24037;49.536;8.500;2023-07-22T13:00:33;3.45;;;2.08;;
38240;SDS011;24037;49.536;8.500;2023-07-22T13:02:59;3.90;;;1.85;;
38240;SDS011;24037;49.536;8.500;2023-07-22T13:05:25;3.38;;;2.08;;
38240;SDS011;24037;49.536;8.500;2023-07-22T13:07:51;5.47;;;2.47;;
38240;SDS011;24037;49.536;8.500;2023-07-22T13:10:18;4.28;;;2.00;;
38240;SDS011;24037;49.536;8.500;2023-07-22T13:12:45;11.35;;;2.83;;
38240;SDS011;24037;49.536;8.500;2023-07-22T13:15:12;3.65;;;2.05;;
38240;SDS011;24037;49.536;8.500;2023-07-22T13:17:38;3.67;;;2.00;;
38240;SDS011;24037;49.536;8.500;2023-07-22T13:20:07;4.47;;;2.05;;
38240;SDS011;24037;49.536;8.500;2023-07-22T13:22:35;5.88;;;2.70;;
38240;SDS011;24037;49.536;8.500;2023-07-22T13:25:02;2.30;;;1.73;;
38240;SDS011;24037;49.536;8.500;2023-07-22T13:27:28;2.67;;;2.00;;
38240;SDS011;24037;49.536;8.500;2023-07-22T13:29:55;4.65;;;1.88;;
38240;SDS011;24037;49.536;8.500;2023-07-22T13:32:21;4.22;;;2.20;;
38240;SDS011;24037;49.536;8.500;2023-07-22T13:34:47;4.75;;;2.28;;
38240;SDS011;24037;49.536;8.500;2023-07-22T13:37:13;2.60;;;2.08;;
38240;SDS011;24037;49.536;8.500;2023-07-22T13:39:39;3.33;;;2.10;;
38240;SDS011;24037;49.536;8.500;2023-07-22T13:42:05;5.40;;;2.60;;
38240;SDS011;24037;49.536;8.500;2023-07-22T13:44:32;3.38;;;1.92;;
38240;SDS011;24037;49.536;8.500;2023-07-22T13:46:58;4.13;;;2.10;;
38240;SDS011;24037;49.536;8.500;2023-07-22T13:49:24;2.67;;;1.95;;
38240;SDS011;24037;49.536;8.500;2023-07-22T13:51:50;2.83;;;1.90;;
38240;SDS011;24037;49.536;8.500;2023-07-22T13:54:16;4.55;;;2.80;;
38240;SDS011;24037;49.536;8.500;2023-07-22T13:56:42;8.95;;;2.30;;
38240;SDS011;24037;49.536;8.500;2023-07-22T13:59:13;2.63;;;2.00;;
38240;SDS011;24037;49.536;8.500;2023-07-22T14:01:39;4.88;;;2.08;;
38240;SDS011;24037;49.536;8.500;2023-07-22T14:04:06;3.13;;;2.20;;
38240;SDS011;24037;49.536;8.500;2023-07-22T14:06:32;6.57;;;2.30;;
38240;SDS011;24037;49.536;8.500;2023-07-22T14:08:58;4.45;;;2.20;;
38240;SDS011;24037;49.536;8.500;2023-07-22T14:11:25;4.50;;;1.88;;
38240;SDS011;24037;49.536;8.500;2023-07-22T14:13:51;3.50;;;1.92;;
38240;SDS011;24037;49.536;8.500;2023-07-22T14:16:17;3.03;;;2.22;;
38240;SDS011;24037;49.536;8.500;2023-07-22T14:18:44;2.63;;;1.85;;
38240;SDS011;24037;49.536;8.500;2023-07-22T14:21:10;3.45;;;2.60;;
38240;SDS011;24037;49.536;8.500;2023-07-22T14:23:37;3.90;;;2.58;;
38240;SDS011;24037;49.536;8.500;2023-07-22T14:26:03;3.33;;;1.90;;
38240;SDS011;24037;49.536;8.500;2023-07-22T14:28:29;4.50;;;2.33;;
38240;SDS011;24037;49.536;8.500;2023-07-22T14:30:55;5.70;;;2.58;;
38240;SDS011;24037;49.536;8.500;2023-07-22T14:33:21;3.70;;;2.25;;
38240;SDS011;24037;49.536;8.500;2023-07-22T14:35:48;3.83;;;2.50;;
38240;SDS011;24037;49.536;8.500;2023-07-22T14:38:14;3.90;;;1.98;;
38240;SDS011;24037;49.536;8.500;2023-07-22T14:40:41;7.43;;;2.22;;
38240;SDS011;24037;49.536;8.500;2023-07-22T14:43:07;4.15;;;2.50;;
38240;SDS011;24037;49.536;8.500;2023-07-22T14:45:33;4.63;;;2.63;;
38240;SDS011;24037;49.536;8.500;2023-07-22T14:47:59;3.03;;;2.10;;
38240;SDS011;24037;49.536;8.500;2023-07-22T14:50:25;4.47;;;2.35;;
38240;SDS011;24037;49.536;8.500;2023-07-22T14:52:52;4.93;;;2.72;;
38240;SDS011;24037;49.536;8.500;2023-07-22T14:55:18;3.20;;;2.50;;
38240;SDS011;24037;49.536;8.500;2023-07-22T14:57:44;5.55;;;2.20;;
38240;SDS011;24037;49.536;8.500;2023-07-22T15:00:12;3.63;;;2.67;;
38240;SDS011;24037;49.536;8.500;2023-07-22T15:02:38;4.95;;;2.50;;
38240;SDS011;24037;49.536;8.500;2023-07-22T15:05:04;3.63;;;2.28;;
38240;SDS011;24037;49.536;8.500;2023-07-22T15:07:31;4.18;;;2.28;;
38240;SDS011;24037;49.536;8.500;2023-07-22T15:09:57;3.75;;;2.13;;
38240;SDS011;24037;49.536;8.500;2023-07-22T15:12:24;3.38;;;2.47;;
38240;SDS011;24037;49.536;8.500;2023-07-22T15:14:50;5.00;;;3.10;;
38240;SDS011;24037;49.536;8.500;2023-07-22T15:17:16;4.82;;;1.90;;
38240;SDS011;24037;49.536;8.500;2023-07-22T15:19:42;4.57;;;2.75;;
38240;SDS011;24037;49.536;8.500;2023-07-22T15:22:08;7.30;;;2.50;;
38240;SDS011;24037;49.536;8.500;2023-07-22T15:24:35;3.78;;;2.50;;